createdAt,value
2023-03-30T00:00:22.922Z,8.32
2023-03-30T00:05:27.764Z,4.95
2023-03-30T00:10:31.523Z,6.37
2023-03-30T00:15:36.606Z,5.22
2023-03-30T00:20:43.142Z,11.27
2023-03-30T00:25:47.129Z,9.60
2023-03-30T00:30:53.595Z,7.50
2023-03-30T00:35:58.866Z,5.20
2023-03-30T00:41:02.926Z,6.03
2023-03-30T00:46:08.435Z,9.82
2023-03-30T00:51:14.024Z,3.47
2023-03-30T00:56:20.864Z,7.90
2023-03-30T01:01:29.101Z,6.10
2023-03-30T01:06:35.281Z,4.87
2023-03-30T01:11:39.576Z,3.28
2023-03-30T01:16:52.783Z,7.00
2023-03-30T01:22:25.429Z,8.18
2023-03-30T01:27:55.511Z,4.20
2023-03-30T01:33:45.357Z,6.95
2023-03-30T01:39:26.030Z,3.80
2023-03-30T01:44:42.945Z,4.00
2023-03-30T01:49:56.414Z,3.53
2023-03-30T01:55:05.204Z,5.57
2023-03-30T02:00:15.083Z,3.92
2023-03-30T02:05:22.363Z,7.75
2023-03-30T02:10:30.161Z,5.20
2023-03-30T02:15:40.880Z,4.12
2023-03-30T02:20:44.710Z,2.58
2023-03-30T02:25:48.400Z,5.40
2023-03-30T02:30:55.635Z,10.23
2023-03-30T02:36:20.323Z,3.85
2023-03-30T02:41:37.742Z,4.10
2023-03-30T02:47:03.645Z,2.33
2023-03-30T02:52:15.906Z,2.65
2023-03-30T02:57:31.175Z,3.22
2023-03-30T03:02:43.109Z,2.95
2023-03-30T03:07:48.187Z,4.18
2023-03-30T03:12:52.224Z,5.68
2023-03-30T03:18:00.948Z,5.50
2023-03-30T03:23:05.025Z,5.57
2023-03-30T03:28:11.760Z,4.30
2023-03-30T03:33:17.160Z,5.30
2023-03-30T03:38:22.856Z,5.35
2023-03-30T03:43:29.686Z,8.87
2023-03-30T03:48:34.783Z,9.32
2023-03-30T03:53:38.721Z,4.40
2023-03-30T03:58:42.841Z,5.43
2023-03-30T04:03:47.915Z,7.60
2023-03-30T04:08:53.073Z,6.57
2023-03-30T04:13:57.363Z,8.73
2023-03-30T04:19:04.689Z,12.25
2023-03-30T04:24:12.184Z,7.15
2023-03-30T04:29:21.032Z,12.18
2023-03-30T04:34:31.035Z,10.23
2023-03-30T04:39:35.616Z,8.90
2023-03-30T04:44:39.876Z,8.70
2023-03-30T04:49:50.464Z,7.18
2023-03-30T04:54:56.002Z,9.57
2023-03-30T05:00:01.491Z,8.95
2023-03-30T05:05:11.125Z,10.10
2023-03-30T05:10:17.253Z,7.57
2023-03-30T05:15:21.720Z,9.52
2023-03-30T05:20:27.489Z,11.00
2023-03-30T05:25:31.926Z,9.20
2023-03-30T05:30:35.978Z,10.40
2023-03-30T05:35:48.816Z,15.38
2023-03-30T05:40:53.746Z,8.90
2023-03-30T05:45:58.176Z,7.97
2023-03-30T05:51:04.129Z,9.60
2023-03-30T05:56:10.439Z,11.80
2023-03-30T06:01:14.746Z,12.93
2023-03-30T06:06:20.906Z,9.43
2023-03-30T06:11:26.090Z,9.43
2023-03-30T06:16:31.908Z,10.45
2023-03-30T06:21:37.697Z,16.27
2023-03-30T06:26:43.577Z,17.77
2023-03-30T06:31:47.985Z,19.33
2023-03-30T06:36:56.085Z,14.80
2023-03-30T06:42:00.852Z,21.48
2023-03-30T06:47:08.183Z,20.33
2023-03-30T06:52:14.332Z,17.30
2023-03-30T06:57:18.129Z,19.85
2023-03-30T07:02:22.019Z,14.40
2023-03-30T07:07:29.440Z,15.98
2023-03-30T07:12:33.373Z,16.85
2023-03-30T07:17:38.780Z,19.33
2023-03-30T07:22:44.146Z,17.10
2023-03-30T07:27:48.815Z,18.80
2023-03-30T07:32:54.334Z,19.02
2023-03-30T07:38:03.789Z,18.87
2023-03-30T07:43:08.616Z,17.35
2023-03-30T07:48:12.762Z,20.00
2023-03-30T07:53:18.041Z,20.50
2023-03-30T07:58:23.517Z,22.58
2023-03-30T08:03:27.764Z,21.98
2023-03-30T08:08:33.539Z,22.17
2023-03-30T08:13:38.278Z,18.25
2023-03-30T08:18:42.453Z,17.55
2023-03-30T08:23:47.609Z,26.15
2023-03-30T08:28:51.396Z,29.12
2023-03-30T08:33:55.088Z,16.58
2023-03-30T08:39:00.290Z,18.60
2023-03-30T08:44:16.014Z,17.98
2023-03-30T08:49:21.973Z,15.13
2023-03-30T08:54:29.444Z,18.35
2023-03-30T08:59:42.016Z,16.80
2023-03-30T09:04:57.688Z,27.05
2023-03-30T09:10:02.926Z,22.80
2023-03-30T09:15:12.812Z,18.75
2023-03-30T09:20:22.039Z,19.33
2023-03-30T09:25:32.563Z,23.67
2023-03-30T09:30:41.630Z,24.33
2023-03-30T09:36:07.188Z,21.12
2023-03-30T09:41:25.866Z,23.92
2023-03-30T09:46:29.756Z,22.15
2023-03-30T09:51:33.543Z,28.20
2023-03-30T09:56:45.132Z,19.02
2023-03-30T10:01:48.969Z,23.52
2023-03-30T10:06:53.362Z,29.85
2023-03-30T10:11:58.565Z,20.65
2023-03-30T10:17:03.767Z,25.77
2023-03-30T10:22:17.340Z,22.23
2023-03-30T10:27:29.426Z,21.67
2023-03-30T10:32:33.306Z,24.27
2023-03-30T10:37:39.691Z,24.48
2023-03-30T10:42:47.405Z,17.87
2023-03-30T10:48:04.945Z,19.40
2023-03-30T10:53:26.274Z,15.50
2023-03-30T10:58:49.186Z,18.70
2023-03-30T11:03:59.897Z,15.00
2023-03-30T11:09:15.702Z,12.32
2023-03-30T11:14:26.573Z,14.15
2023-03-30T11:19:35.037Z,12.82
2023-03-30T11:24:42.744Z,19.73
2023-03-30T11:29:53.008Z,17.10
2023-03-30T11:35:05.517Z,20.48
2023-03-30T11:40:17.403Z,8.25
2023-03-30T11:45:42.431Z,15.05
2023-03-30T11:51:00.695Z,14.13
2023-03-30T12:01:32.519Z,15.07
2023-03-30T12:06:40.438Z,16.00
2023-03-30T12:11:48.793Z,14.68
2023-03-30T12:16:58.765Z,17.42
2023-03-30T12:22:07.816Z,13.98
2023-03-30T12:27:11.995Z,16.25
2023-03-30T12:32:27.672Z,14.73
2023-03-30T12:37:35.664Z,20.50
2023-03-30T12:42:46.922Z,14.50
2023-03-30T12:48:26.293Z,21.27
2023-03-30T12:54:21.767Z,20.08
2023-03-30T12:59:44.601Z,19.05
2023-03-30T13:04:50.769Z,12.90
2023-03-30T13:09:57.808Z,13.95
2023-03-30T13:15:07.127Z,18.83
2023-03-30T13:20:29.316Z,19.15
2023-03-30T13:25:45.373Z,13.52
2023-03-30T13:30:49.256Z,16.58
2023-03-30T13:36:06.274Z,20.73
2023-03-30T13:41:28.219Z,11.70
2023-03-30T13:46:38.344Z,13.90
2023-03-30T13:51:44.229Z,13.75
2023-03-30T13:56:52.175Z,18.23
2023-03-30T14:01:59.449Z,8.32
2023-03-30T14:07:14.023Z,12.07
2023-03-30T14:12:17.952Z,9.25
2023-03-30T14:17:24.186Z,10.18
2023-03-30T14:22:29.584Z,8.90
2023-03-30T14:27:35.017Z,8.93
2023-03-30T14:32:38.833Z,9.82
2023-03-30T14:37:51.590Z,10.18
2023-03-30T14:42:55.934Z,8.82
2023-03-30T14:47:59.944Z,10.77
2023-03-30T14:53:05.143Z,10.88
2023-03-30T14:58:11.526Z,8.65
2023-03-30T15:03:30.405Z,10.82
2023-03-30T15:08:41.057Z,8.57
2023-03-30T15:13:48.570Z,10.55
2023-03-30T15:18:54.200Z,9.95
2023-03-30T15:24:00.526Z,9.30
2023-03-30T15:29:06.181Z,9.27
2023-03-30T15:34:16.917Z,11.63
2023-03-30T15:39:23.860Z,11.93
2023-03-30T15:44:27.569Z,8.80
2023-03-30T15:49:40.805Z,9.85
2023-03-30T15:54:50.620Z,12.95
2023-03-30T15:59:58.641Z,14.02
2023-03-30T16:05:03.338Z,10.82
2023-03-30T16:10:14.186Z,10.57
2023-03-30T16:15:20.689Z,21.75
2023-03-30T16:20:26.303Z,8.00
2023-03-30T16:25:44.098Z,8.93
2023-03-30T16:30:50.408Z,8.93
2023-03-30T16:35:54.253Z,12.07
2023-03-30T16:41:01.313Z,12.63
2023-03-30T16:46:05.086Z,12.43
2023-03-30T16:51:10.652Z,12.00
2023-03-30T16:56:18.246Z,9.00
2023-03-30T17:01:22.091Z,17.12
2023-03-30T17:06:25.935Z,13.82
2023-03-30T17:11:30.998Z,11.65
2023-03-30T17:16:35.048Z,12.10
2023-03-30T17:21:40.141Z,11.30
2023-03-30T17:26:45.541Z,14.68
2023-03-30T17:31:49.446Z,9.98
2023-03-30T17:36:53.418Z,12.20
2023-03-30T17:42:00.126Z,16.67
2023-03-30T17:47:03.985Z,12.55
2023-03-30T17:52:07.715Z,13.18
2023-03-30T17:57:13.554Z,11.90
2023-03-30T18:02:17.615Z,16.17
2023-03-30T18:07:21.350Z,13.62
2023-03-30T18:12:26.808Z,15.38
2023-03-30T18:17:30.627Z,9.50
2023-03-30T18:22:34.374Z,17.40
2023-03-30T18:27:40.213Z,12.27
2023-03-30T18:32:47.284Z,14.02
2023-03-30T18:37:53.956Z,21.13
2023-03-30T18:42:59.652Z,10.68
2023-03-30T18:48:03.630Z,18.37
2023-03-30T18:53:09.602Z,19.17
2023-03-30T18:58:16.771Z,18.52
2023-03-30T19:03:21.834Z,14.05
2023-03-30T19:08:28.763Z,15.88
2023-03-30T19:13:34.003Z,13.10
2023-03-30T19:18:37.715Z,16.40
2023-03-30T19:23:41.444Z,15.60
2023-03-30T19:28:46.613Z,21.05
2023-03-30T19:33:50.408Z,24.05
2023-03-30T19:38:55.239Z,16.60
2023-03-30T19:44:00.909Z,26.77
2023-03-30T19:49:04.620Z,14.77
2023-03-30T19:54:09.204Z,16.55
2023-03-30T19:59:14.293Z,21.30
2023-03-30T20:04:18.067Z,22.92
2023-03-30T20:09:22.195Z,16.70
2023-03-30T20:14:27.476Z,14.48
2023-03-30T20:19:32.021Z,18.42
2023-03-30T20:24:36.905Z,19.92
2023-03-30T20:29:41.953Z,19.37
2023-03-30T20:34:46.860Z,20.40
2023-03-30T20:39:50.901Z,25.25
2023-03-30T20:44:57.777Z,22.40
2023-03-30T20:50:01.547Z,20.33
2023-03-30T20:55:05.703Z,18.35
2023-03-30T21:00:12.614Z,11.48
2023-03-30T21:05:16.574Z,15.57
2023-03-30T21:10:20.372Z,13.85
2023-03-30T21:15:25.438Z,14.13
2023-03-30T21:20:29.133Z,16.15
2023-03-30T21:25:32.795Z,15.43
2023-03-30T21:30:37.796Z,16.67
2023-03-30T21:35:41.593Z,13.88
2023-03-30T21:40:59.014Z,12.85
2023-03-30T21:46:08.251Z,13.32
2023-03-30T21:51:14.171Z,12.35
2023-03-30T21:56:19.545Z,10.10
2023-03-30T22:01:24.991Z,13.27
2023-03-30T22:06:28.947Z,11.45
2023-03-30T22:11:32.814Z,13.15
2023-03-30T22:16:37.900Z,7.10
2023-03-30T22:21:41.934Z,13.48
2023-03-30T22:26:46.116Z,7.85
2023-03-30T22:31:55.707Z,16.10
2023-03-30T22:36:59.634Z,14.15
2023-03-30T22:42:03.335Z,11.98
2023-03-30T22:47:08.424Z,16.98
2023-03-30T22:52:12.133Z,15.77
2023-03-30T22:57:16.076Z,8.70
2023-03-30T23:02:21.246Z,12.75
2023-03-30T23:07:25.076Z,11.05
2023-03-30T23:12:29.427Z,13.60
2023-03-30T23:17:34.608Z,14.02
2023-03-30T23:22:38.999Z,16.87
2023-03-30T23:27:42.673Z,12.27
2023-03-30T23:32:47.768Z,10.30
2023-03-30T23:37:52.661Z,12.30
2023-03-30T23:42:56.859Z,13.27
2023-03-30T23:48:02.052Z,15.52
2023-03-30T23:53:07.026Z,14.75
2023-03-30T23:58:10.937Z,13.00
